Bellingham, WA

7:55 PM PDT on October 25, 2014 (GMT -0700)
Columbia-Eldridge Marimba Palace | Change Station
CLOSE
Current Station
Personal Weather Station
Location: Bellingham, WA
Elevation: 97 ft
Nearby Weather Stations
Active Advisory: Wind Advisory

Elev 97 ft 48.76 °N, 122.50 °W | Updated 8 seconds ago

Rain
Rain
56.5 °F
Feels Like 56.5 °F
N
4.5
Wind Variable Wind from SSE
Gusts 9.8 mph

Today
High -- | Low -- °F
--% Chance of Precip.
Yesterday
High -- | Low -- °F
Precip. -- in
7:45 AM 6:01 PM
Waxing Crescent, 5% visible
Pressure 29.22 in
Visibility 5.0 miles
Clouds Few 1200 ft
Mostly Cloudy 2900 ft
Overcast 3600 ft
Dew Point 53 °F
Humidity 89%
Rainfall 0.35 in
Snow Depth Not available.
UV 0 out of 12
Pollen .40 out of 12
PM2.5 Good
Flu Activity Sporadic
SPECI KBLI 260214Z 36007KT 5SM -RA BR FEW012 BKN029 OVC036 11/10 A2922 RMK AO2 P0006

More Conditions Fewer Conditions

Pressure 29.22 in
Visibility 5.0 miles
Clouds Few 1200 ft
Mostly Cloudy 2900 ft
Overcast 3600 ft
Dew Point 53 °F
Humidity 89%
Rainfall 0.35 in
Snow Depth Not available.
UV 0 out of 12
Pollen .40 out of 12
PM2.5 Good
Flu Activity Sporadic
SPECI KBLI 260214Z 36007KT 5SM -RA BR FEW012 BKN029 OVC036 11/10 A2922 RMK AO2 P0006

More Conditions Fewer Conditions

10-Day Weather Forecast

Almanac

Astronomy

Oct. 25, 2014 Rise Set
Actual Time 7:45 AM PDT 6:01 PM PDT
Civil Twilight 7:13 AM PDT 6:33 PM PDT
Nautical Twilight 6:36 AM PDT 7:10 PM PDT
Astronomical Twilight 6:00 AM PDT 7:47 PM PDT
Moon 9:36 AM PDT (10/25) 7:21 PM PDT (10/25)
Length of Visible Light 11h 20m
Length of Day
10h 15m
Tomorrow will be 3m 20s shorter.
Waxing Crescent, 5% of the Moon is Illuminated
Today
Waxing Crescent
Oct 30
First Quarter
Nov 6
Full
Nov 14
Last Quarter
Nov 22
New

Today's Extremes

State Highs State Lows

Community

WunderPhotos

Upload Photos

1,765,086 photos uploaded!

Nearby

Air Quality

  Air Quality AQ Index Pollutant
Yesterday Good
OZONE
Yesterday Good
PM2.5
Current Good
PM2.5
Saturday Good
OZONE
Saturday Good
PM2.5
Sunday Good
OZONE
Sunday Good
PM2.5
Monday Good
OZONE
Monday Good
PM2.5
Tuesday Good
OZONE
Tuesday Good
PM2.5

Snow Depth

Station Depth Elevation
Mf Nooksack 1 in 4980 ft
Wells Creek 0 in 4200 ft
Beaver Pass 0 in 3620 ft
Dungeness 0 in 4100 ft
Park Creek Ridge 0 in 4600 ft

Earthquake Activity

City Distance Mag. Time & Date
Birch Bay, Washington 15 miles 2.8 3:02 AM PDT
2014-10-24
Minimum magnitude displayed is 2.5.

Coastal Water Temperatures

Place Temperature
Port Townsend, WA 53.1 °F
Friday Harbor, WA 51.1 °F
Port Angeles, WA 57.0 °F

Nearby Weather Stations